sensor_id;sensor_type;location;lat;lon;timestamp;P1;durP1;ratioP1;P2;durP2;ratioP2
63621;SDS011;49770;47.544;19.074;2023-03-14T05:14:47;19.67;;;11.20;;
63621;SDS011;49770;47.544;19.074;2023-03-14T05:17:51;18.98;;;10.73;;
63621;SDS011;49770;47.544;19.074;2023-03-14T05:20:55;16.87;;;10.90;;
63621;SDS011;49770;47.544;19.074;2023-03-14T05:23:58;16.23;;;9.38;;
63621;SDS011;49770;47.544;19.074;2023-03-14T05:27:04;20.00;;;10.50;;
63621;SDS011;49770;47.544;19.074;2023-03-14T05:30:08;20.08;;;9.80;;
63621;SDS011;49770;47.544;19.074;2023-03-14T05:33:12;15.18;;;10.00;;
63621;SDS011;49770;47.544;19.074;2023-03-14T05:36:16;16.75;;;9.63;;
63621;SDS011;49770;47.544;19.074;2023-03-14T05:39:19;16.83;;;9.98;;
63621;SDS011;49770;47.544;19.074;2023-03-14T05:42:22;15.98;;;10.00;;
63621;SDS011;49770;47.544;19.074;2023-03-14T05:45:25;17.45;;;10.40;;
63621;SDS011;49770;47.544;19.074;2023-03-14T05:48:28;16.62;;;9.98;;
63621;SDS011;49770;47.544;19.074;2023-03-14T05:51:32;17.08;;;9.07;;
63621;SDS011;49770;47.544;19.074;2023-03-14T05:54:35;15.68;;;10.25;;
63621;SDS011;49770;47.544;19.074;2023-03-14T05:57:38;15.88;;;9.32;;
63621;SDS011;49770;47.544;19.074;2023-03-14T06:00:44;14.05;;;9.80;;
63621;SDS011;49770;47.544;19.074;2023-03-14T06:03:48;16.77;;;10.00;;
63621;SDS011;49770;47.544;19.074;2023-03-14T06:06:51;18.42;;;9.40;;
63621;SDS011;49770;47.544;19.074;2023-03-14T06:09:55;15.93;;;9.20;;
63621;SDS011;49770;47.544;19.074;2023-03-14T06:12:58;16.45;;;9.85;;
63621;SDS011;49770;47.544;19.074;2023-03-14T06:16:00;16.45;;;8.73;;
63621;SDS011;49770;47.544;19.074;2023-03-14T06:19:04;14.75;;;8.30;;
63621;SDS011;49770;47.544;19.074;2023-03-14T06:22:07;13.98;;;8.13;;
63621;SDS011;49770;47.544;19.074;2023-03-14T06:25:10;14.68;;;8.65;;
63621;SDS011;49770;47.544;19.074;2023-03-14T06:28:14;13.40;;;8.38;;
63621;SDS011;49770;47.544;19.074;2023-03-14T06:31:17;13.38;;;9.05;;
63621;SDS011;49770;47.544;19.074;2023-03-14T06:34:21;13.38;;;8.65;;
63621;SDS011;49770;47.544;19.074;2023-03-14T06:37:24;12.10;;;8.30;;
63621;SDS011;49770;47.544;19.074;2023-03-14T06:40:29;13.00;;;8.27;;
63621;SDS011;49770;47.544;19.074;2023-03-14T06:43:33;14.40;;;8.50;;
63621;SDS011;49770;47.544;19.074;2023-03-14T06:46:37;14.57;;;8.55;;
63621;SDS011;49770;47.544;19.074;2023-03-14T06:49:39;14.18;;;8.35;;
63621;SDS011;49770;47.544;19.074;2023-03-14T06:52:43;13.40;;;8.82;;
63621;SDS011;49770;47.544;19.074;2023-03-14T06:55:50;24.83;;;8.85;;
63621;SDS011;49770;47.544;19.074;2023-03-14T06:58:54;16.50;;;8.93;;
63621;SDS011;49770;47.544;19.074;2023-03-14T07:01:57;15.55;;;9.15;;
63621;SDS011;49770;47.544;19.074;2023-03-14T07:05:00;13.85;;;8.38;;
63621;SDS011;49770;47.544;19.074;2023-03-14T07:08:06;17.37;;;9.20;;
63621;SDS011;49770;47.544;19.074;2023-03-14T07:11:10;13.20;;;8.65;;
63621;SDS011;49770;47.544;19.074;2023-03-14T07:14:13;14.07;;;8.07;;
63621;SDS011;49770;47.544;19.074;2023-03-14T07:17:17;16.12;;;9.57;;
63621;SDS011;49770;47.544;19.074;2023-03-14T07:20:19;15.23;;;8.38;;
63621;SDS011;49770;47.544;19.074;2023-03-14T07:23:23;13.88;;;9.07;;
63621;SDS011;49770;47.544;19.074;2023-03-14T07:26:26;16.87;;;9.02;;
63621;SDS011;49770;47.544;19.074;2023-03-14T07:29:29;17.15;;;9.10;;
63621;SDS011;49770;47.544;19.074;2023-03-14T07:32:33;13.40;;;8.05;;
63621;SDS011;49770;47.544;19.074;2023-03-14T07:35:36;13.10;;;9.25;;
63621;SDS011;49770;47.544;19.074;2023-03-14T07:38:40;18.37;;;8.90;;
63621;SDS011;49770;47.544;19.074;2023-03-14T07:41:43;18.17;;;9.52;;
63621;SDS011;49770;47.544;19.074;2023-03-14T07:44:53;13.30;;;8.75;;
63621;SDS011;49770;47.544;19.074;2023-03-14T07:47:56;12.63;;;8.27;;
63621;SDS011;49770;47.544;19.074;2023-03-14T07:51:00;19.52;;;8.82;;
63621;SDS011;49770;47.544;19.074;2023-03-14T07:54:03;13.93;;;8.45;;
63621;SDS011;49770;47.544;19.074;2023-03-14T07:57:05;14.68;;;8.45;;
63621;SDS011;49770;47.544;19.074;2023-03-14T08:00:09;12.50;;;8.57;;
63621;SDS011;49770;47.544;19.074;2023-03-14T08:03:16;13.18;;;8.73;;
63621;SDS011;49770;47.544;19.074;2023-03-14T08:06:19;18.92;;;8.52;;
63621;SDS011;49770;47.544;19.074;2023-03-14T08:09:22;15.63;;;9.90;;
63621;SDS011;49770;47.544;19.074;2023-03-14T08:12:25;14.32;;;8.63;;
63621;SDS011;49770;47.544;19.074;2023-03-14T08:15:28;13.73;;;8.63;;
63621;SDS011;49770;47.544;19.074;2023-03-14T08:18:33;16.77;;;9.40;;
63621;SDS011;49770;47.544;19.074;2023-03-14T08:21:35;18.25;;;8.80;;
63621;SDS011;49770;47.544;19.074;2023-03-14T08:24:38;18.17;;;9.57;;
63621;SDS011;49770;47.544;19.074;2023-03-14T08:27:41;14.07;;;8.90;;
63621;SDS011;49770;47.544;19.074;2023-03-14T08:30:45;12.80;;;8.38;;
63621;SDS011;49770;47.544;19.074;2023-03-14T08:33:49;16.77;;;8.63;;
63621;SDS011;49770;47.544;19.074;2023-03-14T08:36:54;13.40;;;7.97;;
63621;SDS011;49770;47.544;19.074;2023-03-14T08:39:59;12.65;;;8.13;;
63621;SDS011;49770;47.544;19.074;2023-03-14T08:43:02;16.87;;;8.65;;
63621;SDS011;49770;47.544;19.074;2023-03-14T08:46:05;13.15;;;8.07;;
63621;SDS011;49770;47.544;19.074;2023-03-14T08:49:08;15.40;;;7.72;;
63621;SDS011;49770;47.544;19.074;2023-03-14T08:52:11;14.30;;;7.65;;
63621;SDS011;49770;47.544;19.074;2023-03-14T08:55:14;15.32;;;8.15;;
63621;SDS011;49770;47.544;19.074;2023-03-14T08:58:16;19.92;;;7.80;;
63621;SDS011;49770;47.544;19.074;2023-03-14T09:01:20;16.70;;;7.47;;
63621;SDS011;49770;47.544;19.074;2023-03-14T09:04:26;12.65;;;6.70;;
63621;SDS011;49770;47.544;19.074;2023-03-14T09:07:29;13.88;;;6.50;;
63621;SDS011;49770;47.544;19.074;2023-03-14T09:10:32;15.30;;;6.75;;
63621;SDS011;49770;47.544;19.074;2023-03-14T09:13:35;11.95;;;5.95;;
63621;SDS011;49770;47.544;19.074;2023-03-14T09:16:38;14.05;;;6.15;;
63621;SDS011;49770;47.544;19.074;2023-03-14T09:19:41;10.63;;;5.53;;
63621;SDS011;49770;47.544;19.074;2023-03-14T09:22:44;11.50;;;6.20;;
63621;SDS011;49770;47.544;19.074;2023-03-14T09:25:47;9.00;;;6.20;;
63621;SDS011;49770;47.544;19.074;2023-03-14T09:28:49;10.90;;;5.82;;
63621;SDS011;49770;47.544;19.074;2023-03-14T09:31:52;10.63;;;5.50;;
63621;SDS011;49770;47.544;19.074;2023-03-14T09:34:55;10.98;;;5.70;;
63621;SDS011;49770;47.544;19.074;2023-03-14T09:37:58;10.98;;;5.57;;
63621;SDS011;49770;47.544;19.074;2023-03-14T09:41:01;18.02;;;6.10;;
63621;SDS011;49770;47.544;19.074;2023-03-14T09:44:10;8.45;;;5.15;;
63621;SDS011;49770;47.544;19.074;2023-03-14T09:47:18;12.63;;;5.60;;
63621;SDS011;49770;47.544;19.074;2023-03-14T09:50:22;10.68;;;6.15;;
63621;SDS011;49770;47.544;19.074;2023-03-14T09:53:34;9.10;;;5.80;;
63621;SDS011;49770;47.544;19.074;2023-03-14T09:56:41;7.75;;;5.60;;
63621;SDS011;49770;47.544;19.074;2023-03-14T09:59:44;8.75;;;5.28;;
63621;SDS011;49770;47.544;19.074;2023-03-14T10:02:51;10.55;;;5.75;;
63621;SDS011;49770;47.544;19.074;2023-03-14T10:05:56;16.87;;;5.95;;
63621;SDS011;49770;47.544;19.074;2023-03-14T10:08:59;9.77;;;5.50;;
63621;SDS011;49770;47.544;19.074;2023-03-14T10:12:02;11.50;;;5.40;;
63621;SDS011;49770;47.544;19.074;2023-03-14T10:15:11;12.43;;;5.65;;
63621;SDS011;49770;47.544;19.074;2023-03-14T10:18:22;12.27;;;5.78;;
63621;SDS011;49770;47.544;19.074;2023-03-14T10:21:28;13.32;;;6.10;;
63621;SDS011;49770;47.544;19.074;2023-03-14T10:24:33;13.48;;;5.37;;
63621;SDS011;49770;47.544;19.074;2023-03-14T10:27:36;13.45;;;5.60;;
63621;SDS011;49770;47.544;19.074;2023-03-14T10:30:43;9.02;;;5.40;;
63621;SDS011;49770;47.544;19.074;2023-03-14T10:33:57;6.87;;;3.50;;
63621;SDS011;49770;47.544;19.074;2023-03-14T10:37:06;9.05;;;2.67;;
63621;SDS011;49770;47.544;19.074;2023-03-14T10:40:20;5.40;;;2.50;;
63621;SDS011;49770;47.544;19.074;2023-03-14T10:43:33;7.18;;;2.20;;
63621;SDS011;49770;47.544;19.074;2023-03-14T10:46:37;3.65;;;1.98;;
63621;SDS011;49770;47.544;19.074;2023-03-14T10:49:56;8.15;;;2.17;;
63621;SDS011;49770;47.544;19.074;2023-03-14T10:53:17;8.00;;;2.25;;
63621;SDS011;49770;47.544;19.074;2023-03-14T10:56:21;8.25;;;2.30;;
63621;SDS011;49770;47.544;19.074;2023-03-14T10:59:33;6.00;;;2.25;;
63621;SDS011;49770;47.544;19.074;2023-03-14T11:05:58;6.10;;;2.37;;
63621;SDS011;49770;47.544;19.074;2023-03-14T11:09:12;3.45;;;2.00;;
63621;SDS011;49770;47.544;19.074;2023-03-14T11:22:44;5.62;;;2.10;;
63621;SDS011;49770;47.544;19.074;2023-03-14T11:29:02;4.97;;;2.12;;
63621;SDS011;49770;47.544;19.074;2023-03-14T11:32:36;4.65;;;2.25;;
63621;SDS011;49770;47.544;19.074;2023-03-14T11:35:45;6.10;;;2.58;;
63621;SDS011;49770;47.544;19.074;2023-03-14T11:38:56;3.00;;;1.95;;
63621;SDS011;49770;47.544;19.074;2023-03-14T11:42:00;5.68;;;2.35;;
63621;SDS011;49770;47.544;19.074;2023-03-14T11:45:12;5.25;;;2.15;;
63621;SDS011;49770;47.544;19.074;2023-03-14T11:51:39;4.72;;;1.92;;
63621;SDS011;49770;47.544;19.074;2023-03-14T11:54:48;5.57;;;1.83;;
63621;SDS011;49770;47.544;19.074;2023-03-14T11:57:58;9.83;;;2.97;;
63621;SDS011;49770;47.544;19.074;2023-03-14T12:01:06;11.85;;;1.85;;
63621;SDS011;49770;47.544;19.074;2023-03-14T12:04:16;4.57;;;1.75;;
63621;SDS011;49770;47.544;19.074;2023-03-14T12:10:49;2.90;;;1.60;;
63621;SDS011;49770;47.544;19.074;2023-03-14T12:13:55;3.22;;;1.83;;
63621;SDS011;49770;47.544;19.074;2023-03-14T12:20:22;3.27;;;1.80;;
63621;SDS011;49770;47.544;19.074;2023-03-14T12:23:27;5.47;;;1.60;;
63621;SDS011;49770;47.544;19.074;2023-03-14T12:26:52;4.50;;;2.03;;
63621;SDS011;49770;47.544;19.074;2023-03-14T12:30:14;1.70;;;1.52;;
63621;SDS011;49770;47.544;19.074;2023-03-14T12:33:30;2.67;;;1.48;;
63621;SDS011;49770;47.544;19.074;2023-03-14T12:40:17;6.53;;;1.65;;
63621;SDS011;49770;47.544;19.074;2023-03-14T12:43:35;3.83;;;2.15;;
63621;SDS011;49770;47.544;19.074;2023-03-14T12:46:39;4.95;;;2.05;;
63621;SDS011;49770;47.544;19.074;2023-03-14T12:49:42;6.62;;;1.70;;
63621;SDS011;49770;47.544;19.074;2023-03-14T13:02:43;4.82;;;1.80;;
63621;SDS011;49770;47.544;19.074;2023-03-14T13:05:59;6.47;;;2.10;;
63621;SDS011;49770;47.544;19.074;2023-03-14T13:09:50;3.55;;;1.80;;
63621;SDS011;49770;47.544;19.074;2023-03-14T13:12:37;3.60;;;2.10;;
63621;SDS011;49770;47.544;19.074;2023-03-14T13:15:44;4.35;;;1.60;;
63621;SDS011;49770;47.544;19.074;2023-03-14T13:18:49;4.60;;;2.20;;
63621;SDS011;49770;47.544;19.074;2023-03-14T13:22:03;3.83;;;2.20;;
63621;SDS011;49770;47.544;19.074;2023-03-14T13:25:09;4.25;;;2.17;;
63621;SDS011;49770;47.544;19.074;2023-03-14T13:28:13;4.28;;;2.35;;
63621;SDS011;49770;47.544;19.074;2023-03-14T13:31:21;12.65;;;2.65;;
63621;SDS011;49770;47.544;19.074;2023-03-14T13:34:31;4.15;;;2.10;;
63621;SDS011;49770;47.544;19.074;2023-03-14T13:37:38;3.45;;;2.00;;
63621;SDS011;49770;47.544;19.074;2023-03-14T13:40:42;5.05;;;1.95;;
63621;SDS011;49770;47.544;19.074;2023-03-14T13:43:47;5.40;;;1.98;;
63621;SDS011;49770;47.544;19.074;2023-03-14T13:46:50;3.92;;;2.22;;
63621;SDS011;49770;47.544;19.074;2023-03-14T13:49:53;5.20;;;2.70;;
63621;SDS011;49770;47.544;19.074;2023-03-14T13:53:02;3.67;;;2.12;;
63621;SDS011;49770;47.544;19.074;2023-03-14T13:56:05;5.22;;;2.60;;
63621;SDS011;49770;47.544;19.074;2023-03-14T14:02:28;4.90;;;2.25;;
63621;SDS011;49770;47.544;19.074;2023-03-14T14:05:32;2.58;;;2.17;;
63621;SDS011;49770;47.544;19.074;2023-03-14T14:08:40;4.50;;;2.25;;
63621;SDS011;49770;47.544;19.074;2023-03-14T14:12:05;2.53;;;2.20;;
63621;SDS011;49770;47.544;19.074;2023-03-14T14:15:21;3.83;;;2.20;;
63621;SDS011;49770;47.544;19.074;2023-03-14T14:18:28;3.83;;;2.30;;
63621;SDS011;49770;47.544;19.074;2023-03-14T14:21:34;4.07;;;2.28;;
63621;SDS011;49770;47.544;19.074;2023-03-14T14:24:37;6.05;;;2.53;;
63621;SDS011;49770;47.544;19.074;2023-03-14T14:27:42;3.30;;;2.22;;
63621;SDS011;49770;47.544;19.074;2023-03-14T14:34:20;5.65;;;2.42;;
63621;SDS011;49770;47.544;19.074;2023-03-14T14:37:27;5.82;;;2.15;;
63621;SDS011;49770;47.544;19.074;2023-03-14T14:40:33;4.18;;;2.30;;
63621;SDS011;49770;47.544;19.074;2023-03-14T14:43:36;5.75;;;2.20;;
63621;SDS011;49770;47.544;19.074;2023-03-14T14:46:42;5.70;;;2.85;;
63621;SDS011;49770;47.544;19.074;2023-03-14T14:49:46;7.70;;;2.67;;
63621;SDS011;49770;47.544;19.074;2023-03-14T14:52:49;5.30;;;2.37;;
63621;SDS011;49770;47.544;19.074;2023-03-14T14:56:19;8.35;;;2.67;;
63621;SDS011;49770;47.544;19.074;2023-03-14T14:59:27;5.30;;;2.60;;
63621;SDS011;49770;47.544;19.074;2023-03-14T15:05:47;8.68;;;2.75;;
63621;SDS011;49770;47.544;19.074;2023-03-14T15:08:50;4.97;;;3.10;;
63621;SDS011;49770;47.544;19.074;2023-03-14T15:11:56;5.35;;;3.25;;
63621;SDS011;49770;47.544;19.074;2023-03-14T15:14:59;11.12;;;3.55;;
63621;SDS011;49770;47.544;19.074;2023-03-14T15:18:02;9.23;;;4.60;;
63621;SDS011;49770;47.544;19.074;2023-03-14T15:21:05;10.02;;;4.43;;
63621;SDS011;49770;47.544;19.074;2023-03-14T15:24:08;8.82;;;4.40;;
63621;SDS011;49770;47.544;19.074;2023-03-14T15:27:12;6.68;;;4.03;;
63621;SDS011;49770;47.544;19.074;2023-03-14T15:30:17;11.15;;;4.70;;
63621;SDS011;49770;47.544;19.074;2023-03-14T15:33:24;11.12;;;4.20;;
63621;SDS011;49770;47.544;19.074;2023-03-14T15:36:29;9.93;;;4.97;;
63621;SDS011;49770;47.544;19.074;2023-03-14T15:39:34;12.82;;;4.45;;
63621;SDS011;49770;47.544;19.074;2023-03-14T15:42:37;7.80;;;4.47;;
63621;SDS011;49770;47.544;19.074;2023-03-14T15:45:40;12.05;;;5.20;;
63621;SDS011;49770;47.544;19.074;2023-03-14T15:48:44;11.60;;;5.12;;
63621;SDS011;49770;47.544;19.074;2023-03-14T15:51:47;7.03;;;3.05;;
63621;SDS011;49770;47.544;19.074;2023-03-14T15:54:51;4.85;;;2.40;;
63621;SDS011;49770;47.544;19.074;2023-03-14T15:57:53;7.95;;;2.42;;
63621;SDS011;49770;47.544;19.074;2023-03-14T16:00:56;5.37;;;2.20;;
63621;SDS011;49770;47.544;19.074;2023-03-14T16:03:59;2.90;;;1.80;;
63621;SDS011;49770;47.544;19.074;2023-03-14T16:07:04;5.18;;;2.05;;
63621;SDS011;49770;47.544;19.074;2023-03-14T16:10:09;5.20;;;2.17;;
63621;SDS011;49770;47.544;19.074;2023-03-14T16:13:13;3.62;;;2.00;;
63621;SDS011;49770;47.544;19.074;2023-03-14T16:16:17;4.00;;;2.05;;
63621;SDS011;49770;47.544;19.074;2023-03-14T16:19:19;5.50;;;2.37;;
